IkaScore Players IkaScore Alliances






Support IkaScore

Please donate to
me@ikascore.com

using Skrill
Latvia Epsilon
Ikariam players: 50
AverageTotal
Kopējais punktu skaits: 23745961 1187298031
Celtnieki: 19670755 983537771
Celtniecības līmeņi: 2783 4563726
Zinātnieki: 767128 1258089899
Pētniecības līmenis: 283 464160
Ģenerāļi: 11179 18333278
Zelts: 35951493 1797574626
Uzbrukuma punkti: 8182 13418896
Aizsardzības punkti: 10433 17109379
Tirdzniecības statistika: 4569 7493448
Resursi: 14783292 739164599
ziedot: 383435 628833728
Score vulnerability: 174605 286352131
Gold vulnerability: 170992 280427223
Population: 16738 27449522
Donations to score: 328591 538889577

Digg! Delicious! IkaScore homepage
Players - Kopējais punktu skaits
  per page  Next page >>
Rank Ikariam player Alliance Score Type Score Updated
1 Priekšnieks I-sHiNe EŽI Kopējais punktu skaits 95138699 28/11 00:37
2 Liesmu pavēlnieks Ezīcz EŽI Kopējais punktu skaits 92061216 28/11 00:37
3 FOX03 EŽI Kopējais punktu skaits 58695987 28/11 00:37
4 Admirālis Sipango EŽI Kopējais punktu skaits 58323055 28/11 00:37
5 Admirālis Orākuls NRWL Kopējais punktu skaits 54112300 28/11 00:37
6 Dievu dzērienu servētājs Lācīc EŽI Kopējais punktu skaits 50219646 28/11 00:37
Support IkaScore

Please donate to    me@ikascore.com    using Skrill
7 Karaļa Mēdosa mantzinis Larry Laffer SOG Kopējais punktu skaits 49783539 28/11 00:37
8 Pirātu karalis pumba DESA Kopējais punktu skaits 48543492 28/11 00:37
9 Ģēnijs kvferma KF P Kopējais punktu skaits 47594581 28/11 00:37
10 Kimk EŽI Kopējais punktu skaits 44130728 28/11 00:37
11 Marmora magnāts Patrons K15R Kopējais punktu skaits 43825227 28/11 00:37
12 CIPO LAT Kopējais punktu skaits 38942753 28/11 00:37
13 Smalkās mākslas meistars Dalas EŽI Kopējais punktu skaits 38618606 28/11 00:37
14 Mākslinieks sleeping_awake EŽI Kopējais punktu skaits 37586988 28/11 00:37
15 zzzz new Kopējais punktu skaits 36039666 28/11 00:37
16 Senais Ezis EŽI Kopējais punktu skaits 34387144 28/11 00:37
17 Cricket EŽI Kopējais punktu skaits 34314453 28/11 00:37
18 Kristāla magnāts Tūrists NEZIN Kopējais punktu skaits 34050099 28/11 00:37
19 Laboratorijas žurka kasuks SPARS Kopējais punktu skaits 33662149 28/11 00:37
20 klibais2 LAT Kopējais punktu skaits 33240819 28/11 00:37
21 gt99 LAT Kopējais punktu skaits 31156219 28/11 00:37
22 Kaislīgs kolekcionārs Valkirs KidLV Kopējais punktu skaits 30198067 28/11 00:37
23 gt99lv LAT Kopējais punktu skaits 29690225 28/11 00:37
24 Heņa79 Kopējais punktu skaits 29567509 28/11 00:37
25 Giekalitis LAT Kopējais punktu skaits 29565144 28/11 00:37
26 valdisss KF P Kopējais punktu skaits 29489956 28/11 00:37
27 dragoo LAT Kopējais punktu skaits 29245441 28/11 00:37
28 Vēstnieks MIL NRWL Kopējais punktu skaits 29194805 28/11 00:37
29 ronda P-Z Kopējais punktu skaits 28960035 28/11 00:37
30 Patrons Al_Cohol SPARS Kopējais punktu skaits 28482806 28/11 00:37
31 nike air 13 -F-2 Kopējais punktu skaits 28308478 28/11 00:37
32 Mākslinieks KVL Mc Murss Kopējais punktu skaits 27641450 28/11 00:37
33 Predator55 NEZIN Kopējais punktu skaits 27471911 28/11 00:37
34 Zelimhans PO- Kopējais punktu skaits 27246381 28/11 00:37
35 5even EŽI Kopējais punktu skaits 27007938 28/11 00:37
36 Apollons sezams Kopējais punktu skaits 26550618 28/11 00:37
37 Vells KidLV Kopējais punktu skaits 26461362 28/11 00:37
38 Orkla KidLV Kopējais punktu skaits 26094658 28/11 00:37
39 Marmora magnāts Lord Uhtred K15R Kopējais punktu skaits 26060889 28/11 00:37
40 bankieriic LAT Kopējais punktu skaits 25408464 28/11 00:37
41 Chupacabra P-Z Kopējais punktu skaits 25388151 28/11 00:37
42 Kristāla magnāts romina LAT Kopējais punktu skaits 25179916 28/11 00:37
43 Cooper NEZIN Kopējais punktu skaits 25088652 28/11 00:37
44 Imperators Runcis Killroy K15R Kopējais punktu skaits 25058111 28/11 00:37
45 Maratonists Xander SOG Kopējais punktu skaits 24346342 28/11 00:37
46 atonkuls Kopējais punktu skaits 24182423 28/11 00:37
47 Norcis Kopējais punktu skaits 24027037 28/11 00:37
48 U-Boat EŽI Kopējais punktu skaits 23904107 28/11 00:37
49 Sīzifs digitteks NEZIN Kopējais punktu skaits 23903656 28/11 00:37
50 Diversants P-Z Kopējais punktu skaits 23855563 28/11 00:37
51 Runcis Draxo K15R Kopējais punktu skaits 23629276 28/11 00:37
52 Detektīvs Čaks Noriss NRWL Kopējais punktu skaits 23415838 28/11 00:37
53 internal NRWL Kopējais punktu skaits 23331069 28/11 00:37
54 kristzz LAT Kopējais punktu skaits 23281615 28/11 00:37
55 Jaffa EŽI Kopējais punktu skaits 23172534 28/11 00:37
56 deepangel Kopējais punktu skaits 23039074 28/11 00:37
57 nike air P-Z Kopējais punktu skaits 22999614 28/11 00:37
58 Apple Kopējais punktu skaits 22851798 28/11 00:37
59 rondaa LAT Kopējais punktu skaits 22638504 28/11 00:37
60 naudigais KidLV Kopējais punktu skaits 22182747 28/11 00:37
61 Jurka KidLV Kopējais punktu skaits 22181144 28/11 00:37
62 Ahilleja čempions Lemekkins ZOOM Kopējais punktu skaits 22129169 28/11 00:37
63 Gubernators Runcis TulikDew NRWL Kopējais punktu skaits 21669459 28/11 00:37
64 123 123e Kopējais punktu skaits 21429072 28/11 00:37
65 dragn P-Z Kopējais punktu skaits 21191793 28/11 00:37
66 SMārtiņš LVS- Kopējais punktu skaits 21096258 28/11 00:37
67 Melnā tirgus karalis LiFe NEZIN Kopējais punktu skaits 21064806 28/11 00:37
68 Kaupo P-Z Kopējais punktu skaits 21020871 28/11 00:37
69 Inesus LAT Kopējais punktu skaits 20853053 28/11 00:37
70 Apollons -RīdžA- NEZIN Kopējais punktu skaits 20766492 28/11 00:37
71 -Edgars- RedS Kopējais punktu skaits 20511735 28/11 00:37
72 Admirālis Trencis DESA Kopējais punktu skaits 20142455 28/11 00:37
73 zāļuks LAT Kopējais punktu skaits 20097986 28/11 00:37
74 chikago ZOOM Kopējais punktu skaits 19775324 28/11 00:37
75 janisz Kopējais punktu skaits 19712982 28/11 00:37
76 Čingishans KidLV Kopējais punktu skaits 19565773 28/11 00:37
77 Rols PO- Kopējais punktu skaits 19523583 28/11 00:37
78 -flabers- LAT Kopējais punktu skaits 19505055 28/11 00:37
79 Ziloņkaula torņa sargs wilsis EŽI Kopējais punktu skaits 19463135 28/11 00:37
80 čingishans_D P-Z Kopējais punktu skaits 19316659 28/11 00:37
81 Pirātu kapteinis IVARS97 Z P Kopējais punktu skaits 19225549 28/11 00:37
82 Detektīvs Her0 NEZIN Kopējais punktu skaits 19202780 28/11 00:37
83 Vīna magnāts jaudigais NEZIN Kopējais punktu skaits 19090355 28/11 00:37
84 Jasons NEZIN Kopējais punktu skaits 18981782 28/11 00:37
85 Čingishans_G KidLV Kopējais punktu skaits 18894747 28/11 00:37
86 Mākslinieks Runcis Odze K15R Kopējais punktu skaits 18851725 28/11 00:37
87 Karaļa Mēdosa mantzinis Lucifer NRWL Kopējais punktu skaits 18782342 28/11 00:37
88 Darkness Kopējais punktu skaits 18589546 28/11 00:37
89 Legacy -FX- Kopējais punktu skaits 18312844 28/11 00:37
90 Gubernators Amun-Ra LAT Kopējais punktu skaits 18288827 28/11 00:37
91 Podi LAT Kopējais punktu skaits 18064161 28/11 00:37
92 Klaids PO- Kopējais punktu skaits 18029655 28/11 00:37
93 Čingishans_B KidLV Kopējais punktu skaits 18013733 28/11 00:37
94 Vēstnieks Tihomir KidLV Kopējais punktu skaits 17906147 28/11 00:37
95 kukers123 LAT Kopējais punktu skaits 17843606 28/11 00:37
96 Ozolss LAT Kopējais punktu skaits 17702883 28/11 00:37
97 ZARNASKUNGS -AHA- Kopējais punktu skaits 17690945 28/11 00:37
98 kukers P-Z Kopējais punktu skaits 17674309 28/11 00:37
99 vkakis D-H Kopējais punktu skaits 17559731 28/11 00:37
100 Marmora magnāts drink_it RedS Kopējais punktu skaits 17430246 28/11 00:37
  per page  Next page >>

Copyright © 2010 IkaScore.com All Rights Reserved | Disclaimer